sensor_id;sensor_type;location;lat;lon;timestamp;temperature;humidity
30186;DHT22;31152;49.190;8.122;2023-11-19T00:00:09;8.50;99.90
30186;DHT22;31152;49.190;8.122;2023-11-19T00:02:39;8.50;99.90
30186;DHT22;31152;49.190;8.122;2023-11-19T00:05:07;8.50;99.90
30186;DHT22;31152;49.190;8.122;2023-11-19T00:07:36;8.60;99.90
30186;DHT22;31152;49.190;8.122;2023-11-19T00:10:03;8.50;99.90
30186;DHT22;31152;49.190;8.122;2023-11-19T00:12:43;8.60;99.90
30186;DHT22;31152;49.190;8.122;2023-11-19T00:15:17;8.60;99.90
30186;DHT22;31152;49.190;8.122;2023-11-19T00:17:46;8.60;99.90
30186;DHT22;31152;49.190;8.122;2023-11-19T00:20:17;8.60;99.90
30186;DHT22;31152;49.190;8.122;2023-11-19T00:22:44;8.60;99.90
30186;DHT22;31152;49.190;8.122;2023-11-19T00:25:16;8.60;99.90
30186;DHT22;31152;49.190;8.122;2023-11-19T00:27:43;8.60;99.90
30186;DHT22;31152;49.190;8.122;2023-11-19T00:30:13;8.70;99.90
30186;DHT22;31152;49.190;8.122;2023-11-19T00:32:41;8.70;99.90
30186;DHT22;31152;49.190;8.122;2023-11-19T00:35:09;8.70;99.90
30186;DHT22;31152;49.190;8.122;2023-11-19T00:37:41;8.70;99.90
30186;DHT22;31152;49.190;8.122;2023-11-19T00:40:12;8.70;99.90
30186;DHT22;31152;49.190;8.122;2023-11-19T00:42:45;8.80;99.90
30186;DHT22;31152;49.190;8.122;2023-11-19T00:45:12;8.70;99.90
30186;DHT22;31152;49.190;8.122;2023-11-19T00:47:39;8.80;99.90
30186;DHT22;31152;49.190;8.122;2023-11-19T00:50:07;8.80;99.90
30186;DHT22;31152;49.190;8.122;2023-11-19T00:52:38;8.80;99.90
30186;DHT22;31152;49.190;8.122;2023-11-19T00:55:05;8.80;99.90
30186;DHT22;31152;49.190;8.122;2023-11-19T00:57:33;8.80;99.90
30186;DHT22;31152;49.190;8.122;2023-11-19T01:00:00;8.80;99.90
30186;DHT22;31152;49.190;8.122;2023-11-19T01:02:29;8.80;99.90
30186;DHT22;31152;49.190;8.122;2023-11-19T01:04:56;8.80;99.90
30186;DHT22;31152;49.190;8.122;2023-11-19T01:07:25;8.80;99.90
30186;DHT22;31152;49.190;8.122;2023-11-19T01:09:53;8.80;99.90
30186;DHT22;31152;49.190;8.122;2023-11-19T01:12:20;8.80;99.90
30186;DHT22;31152;49.190;8.122;2023-11-19T01:14:47;8.80;99.90
30186;DHT22;31152;49.190;8.122;2023-11-19T01:17:14;8.90;99.90
30186;DHT22;31152;49.190;8.122;2023-11-19T01:19:43;8.80;99.90
30186;DHT22;31152;49.190;8.122;2023-11-19T01:22:10;8.80;99.90
30186;DHT22;31152;49.190;8.122;2023-11-19T01:24:36;8.80;99.90
30186;DHT22;31152;49.190;8.122;2023-11-19T01:27:05;8.80;99.90
30186;DHT22;31152;49.190;8.122;2023-11-19T01:29:35;8.90;99.90
30186;DHT22;31152;49.190;8.122;2023-11-19T01:32:01;8.90;99.90
30186;DHT22;31152;49.190;8.122;2023-11-19T01:34:28;8.90;99.90
30186;DHT22;31152;49.190;8.122;2023-11-19T01:36:55;8.90;99.90
30186;DHT22;31152;49.190;8.122;2023-11-19T01:39:22;8.90;99.90
30186;DHT22;31152;49.190;8.122;2023-11-19T01:41:49;8.90;99.90
30186;DHT22;31152;49.190;8.122;2023-11-19T01:44:15;8.90;99.90
30186;DHT22;31152;49.190;8.122;2023-11-19T01:46:44;8.90;99.90
30186;DHT22;31152;49.190;8.122;2023-11-19T01:49:15;8.90;99.90
30186;DHT22;31152;49.190;8.122;2023-11-19T01:51:42;8.90;99.90
30186;DHT22;31152;49.190;8.122;2023-11-19T01:54:09;8.90;99.90
30186;DHT22;31152;49.190;8.122;2023-11-19T01:56:37;8.90;99.90
30186;DHT22;31152;49.190;8.122;2023-11-19T01:59:07;8.90;99.90
30186;DHT22;31152;49.190;8.122;2023-11-19T02:01:36;9.00;99.90
30186;DHT22;31152;49.190;8.122;2023-11-19T02:04:08;9.00;99.90
30186;DHT22;31152;49.190;8.122;2023-11-19T02:06:38;9.00;99.90
30186;DHT22;31152;49.190;8.122;2023-11-19T02:09:08;9.00;99.90
30186;DHT22;31152;49.190;8.122;2023-11-19T02:11:40;9.00;99.90
30186;DHT22;31152;49.190;8.122;2023-11-19T02:14:07;9.00;99.90
30186;DHT22;31152;49.190;8.122;2023-11-19T02:16:34;9.00;99.90
30186;DHT22;31152;49.190;8.122;2023-11-19T02:19:01;9.00;99.90
30186;DHT22;31152;49.190;8.122;2023-11-19T02:21:30;9.00;99.90
30186;DHT22;31152;49.190;8.122;2023-11-19T02:23:57;9.10;99.90
30186;DHT22;31152;49.190;8.122;2023-11-19T02:29:06;9.10;99.90
30186;DHT22;31152;49.190;8.122;2023-11-19T02:31:34;9.10;99.90
30186;DHT22;31152;49.190;8.122;2023-11-19T02:34:02;9.10;99.90
30186;DHT22;31152;49.190;8.122;2023-11-19T02:36:29;9.10;99.90
30186;DHT22;31152;49.190;8.122;2023-11-19T02:38:56;9.10;99.90
30186;DHT22;31152;49.190;8.122;2023-11-19T02:41:22;9.10;99.90
30186;DHT22;31152;49.190;8.122;2023-11-19T02:43:49;9.10;99.90
30186;DHT22;31152;49.190;8.122;2023-11-19T02:46:18;9.10;99.90
30186;DHT22;31152;49.190;8.122;2023-11-19T02:48:46;9.10;99.90
30186;DHT22;31152;49.190;8.122;2023-11-19T02:51:13;9.10;99.90
30186;DHT22;31152;49.190;8.122;2023-11-19T02:53:39;9.10;99.90
30186;DHT22;31152;49.190;8.122;2023-11-19T02:56:11;9.10;99.90
30186;DHT22;31152;49.190;8.122;2023-11-19T02:58:53;9.10;99.90
30186;DHT22;31152;49.190;8.122;2023-11-19T03:01:24;9.20;99.90
30186;DHT22;31152;49.190;8.122;2023-11-19T03:03:58;9.20;99.90
30186;DHT22;31152;49.190;8.122;2023-11-19T03:06:25;9.20;99.90
30186;DHT22;31152;49.190;8.122;2023-11-19T03:08:52;9.20;99.90
30186;DHT22;31152;49.190;8.122;2023-11-19T03:11:19;9.20;99.90
30186;DHT22;31152;49.190;8.122;2023-11-19T03:13:46;9.20;99.90
30186;DHT22;31152;49.190;8.122;2023-11-19T03:16:13;9.20;99.90
30186;DHT22;31152;49.190;8.122;2023-11-19T03:18:40;9.20;99.90
30186;DHT22;31152;49.190;8.122;2023-11-19T03:21:07;9.20;99.90
30186;DHT22;31152;49.190;8.122;2023-11-19T03:23:37;9.20;99.90
30186;DHT22;31152;49.190;8.122;2023-11-19T03:26:04;9.20;99.90
30186;DHT22;31152;49.190;8.122;2023-11-19T03:28:32;9.30;99.90
30186;DHT22;31152;49.190;8.122;2023-11-19T03:30:59;9.30;99.90
30186;DHT22;31152;49.190;8.122;2023-11-19T03:33:29;9.30;99.90
30186;DHT22;31152;49.190;8.122;2023-11-19T03:35:58;9.30;99.90
30186;DHT22;31152;49.190;8.122;2023-11-19T03:38:27;9.30;99.90
30186;DHT22;31152;49.190;8.122;2023-11-19T03:40:56;9.40;99.90
30186;DHT22;31152;49.190;8.122;2023-11-19T03:43:23;9.40;99.90
30186;DHT22;31152;49.190;8.122;2023-11-19T03:45:52;9.40;99.90
30186;DHT22;31152;49.190;8.122;2023-11-19T03:48:19;9.40;99.90
30186;DHT22;31152;49.190;8.122;2023-11-19T03:50:46;9.40;99.90
30186;DHT22;31152;49.190;8.122;2023-11-19T03:53:12;9.50;99.90
30186;DHT22;31152;49.190;8.122;2023-11-19T03:55:40;9.50;99.90
30186;DHT22;31152;49.190;8.122;2023-11-19T03:58:09;9.50;99.90
30186;DHT22;31152;49.190;8.122;2023-11-19T04:00:36;9.50;99.90
30186;DHT22;31152;49.190;8.122;2023-11-19T04:03:02;9.50;99.90
30186;DHT22;31152;49.190;8.122;2023-11-19T04:05:29;9.50;99.90
30186;DHT22;31152;49.190;8.122;2023-11-19T04:07:58;9.60;99.90
30186;DHT22;31152;49.190;8.122;2023-11-19T04:10:25;9.60;99.90
30186;DHT22;31152;49.190;8.122;2023-11-19T04:12:56;9.60;99.90
30186;DHT22;31152;49.190;8.122;2023-11-19T04:15:23;9.70;99.90
30186;DHT22;31152;49.190;8.122;2023-11-19T04:17:55;9.70;99.90
30186;DHT22;31152;49.190;8.122;2023-11-19T04:20:21;9.70;99.90
30186;DHT22;31152;49.190;8.122;2023-11-19T04:22:50;9.70;99.90
30186;DHT22;31152;49.190;8.122;2023-11-19T04:25:17;9.70;99.90
30186;DHT22;31152;49.190;8.122;2023-11-19T04:27:45;9.80;99.90
30186;DHT22;31152;49.190;8.122;2023-11-19T04:30:16;9.80;99.90
30186;DHT22;31152;49.190;8.122;2023-11-19T04:32:43;9.90;99.90
30186;DHT22;31152;49.190;8.122;2023-11-19T04:35:13;9.90;99.90
30186;DHT22;31152;49.190;8.122;2023-11-19T04:37:42;9.90;99.90
30186;DHT22;31152;49.190;8.122;2023-11-19T04:40:09;9.90;99.90
30186;DHT22;31152;49.190;8.122;2023-11-19T04:42:36;9.90;99.90
30186;DHT22;31152;49.190;8.122;2023-11-19T04:45:03;10.00;99.90
30186;DHT22;31152;49.190;8.122;2023-11-19T04:47:35;10.00;99.90
30186;DHT22;31152;49.190;8.122;2023-11-19T04:50:02;10.00;99.90
30186;DHT22;31152;49.190;8.122;2023-11-19T04:52:30;10.10;99.90
30186;DHT22;31152;49.190;8.122;2023-11-19T04:54:56;10.10;99.90
30186;DHT22;31152;49.190;8.122;2023-11-19T04:57:26;10.10;99.90
30186;DHT22;31152;49.190;8.122;2023-11-19T04:59:53;10.20;99.90
30186;DHT22;31152;49.190;8.122;2023-11-19T05:02:23;10.20;99.90
30186;DHT22;31152;49.190;8.122;2023-11-19T05:04:49;10.20;99.90
30186;DHT22;31152;49.190;8.122;2023-11-19T05:07:16;10.20;99.90
30186;DHT22;31152;49.190;8.122;2023-11-19T05:09:43;10.20;99.90
30186;DHT22;31152;49.190;8.122;2023-11-19T05:12:12;10.30;99.90
30186;DHT22;31152;49.190;8.122;2023-11-19T05:14:39;10.30;99.90
30186;DHT22;31152;49.190;8.122;2023-11-19T05:17:08;10.30;99.90
30186;DHT22;31152;49.190;8.122;2023-11-19T05:19:38;10.30;99.90
30186;DHT22;31152;49.190;8.122;2023-11-19T05:22:05;10.40;99.90
30186;DHT22;31152;49.190;8.122;2023-11-19T05:24:32;10.40;99.90
30186;DHT22;31152;49.190;8.122;2023-11-19T05:26:59;10.40;99.90
30186;DHT22;31152;49.190;8.122;2023-11-19T05:29:26;10.40;99.90
30186;DHT22;31152;49.190;8.122;2023-11-19T05:31:53;10.50;99.90
30186;DHT22;31152;49.190;8.122;2023-11-19T05:34:24;10.50;99.90
30186;DHT22;31152;49.190;8.122;2023-11-19T05:36:51;10.50;99.90
30186;DHT22;31152;49.190;8.122;2023-11-19T05:39:20;10.50;99.90
30186;DHT22;31152;49.190;8.122;2023-11-19T05:41:48;10.50;99.90
30186;DHT22;31152;49.190;8.122;2023-11-19T05:44:14;10.60;99.90
30186;DHT22;31152;49.190;8.122;2023-11-19T05:46:44;10.60;99.90
30186;DHT22;31152;49.190;8.122;2023-11-19T05:49:11;10.60;99.90
30186;DHT22;31152;49.190;8.122;2023-11-19T05:51:39;10.60;99.90
30186;DHT22;31152;49.190;8.122;2023-11-19T05:54:09;10.60;99.90
30186;DHT22;31152;49.190;8.122;2023-11-19T05:56:37;10.60;99.90
30186;DHT22;31152;49.190;8.122;2023-11-19T05:59:04;10.60;99.90
30186;DHT22;31152;49.190;8.122;2023-11-19T06:01:36;10.70;99.90
30186;DHT22;31152;49.190;8.122;2023-11-19T06:04:08;10.70;99.90
30186;DHT22;31152;49.190;8.122;2023-11-19T06:06:37;10.60;99.90
30186;DHT22;31152;49.190;8.122;2023-11-19T06:09:04;10.70;99.90
30186;DHT22;31152;49.190;8.122;2023-11-19T06:11:35;10.70;99.90
30186;DHT22;31152;49.190;8.122;2023-11-19T06:14:02;10.80;99.90
30186;DHT22;31152;49.190;8.122;2023-11-19T06:16:34;10.70;99.90
30186;DHT22;31152;49.190;8.122;2023-11-19T06:19:05;10.80;99.90
30186;DHT22;31152;49.190;8.122;2023-11-19T06:21:32;10.80;99.90
30186;DHT22;31152;49.190;8.122;2023-11-19T06:23:59;10.80;99.90
30186;DHT22;31152;49.190;8.122;2023-11-19T06:26:25;10.90;99.90
30186;DHT22;31152;49.190;8.122;2023-11-19T06:28:55;10.90;99.90
30186;DHT22;31152;49.190;8.122;2023-11-19T06:31:21;10.90;99.90
30186;DHT22;31152;49.190;8.122;2023-11-19T06:33:48;10.90;99.90
30186;DHT22;31152;49.190;8.122;2023-11-19T06:36:15;10.90;99.90
30186;DHT22;31152;49.190;8.122;2023-11-19T06:38:45;11.00;99.90
30186;DHT22;31152;49.190;8.122;2023-11-19T06:41:11;11.00;99.90
30186;DHT22;31152;49.190;8.122;2023-11-19T06:43:38;11.00;99.90
30186;DHT22;31152;49.190;8.122;2023-11-19T06:46:16;11.00;99.90
30186;DHT22;31152;49.190;8.122;2023-11-19T06:48:43;11.10;99.90
30186;DHT22;31152;49.190;8.122;2023-11-19T06:51:13;11.00;99.90
30186;DHT22;31152;49.190;8.122;2023-11-19T06:53:40;11.10;99.90
30186;DHT22;31152;49.190;8.122;2023-11-19T06:56:22;11.10;99.90
30186;DHT22;31152;49.190;8.122;2023-11-19T06:58:50;11.10;99.90
30186;DHT22;31152;49.190;8.122;2023-11-19T07:01:17;11.10;99.90
30186;DHT22;31152;49.190;8.122;2023-11-19T07:03:48;11.10;99.90
30186;DHT22;31152;49.190;8.122;2023-11-19T07:06:15;11.10;99.90
30186;DHT22;31152;49.190;8.122;2023-11-19T07:08:42;11.20;99.90
30186;DHT22;31152;49.190;8.122;2023-11-19T07:11:13;11.20;99.90
30186;DHT22;31152;49.190;8.122;2023-11-19T07:13:44;11.20;99.90
30186;DHT22;31152;49.190;8.122;2023-11-19T07:16:14;11.10;99.90
30186;DHT22;31152;49.190;8.122;2023-11-19T07:18:42;11.20;99.90
30186;DHT22;31152;49.190;8.122;2023-11-19T07:21:10;11.20;99.90
30186;DHT22;31152;49.190;8.122;2023-11-19T07:23:37;11.30;99.90
30186;DHT22;31152;49.190;8.122;2023-11-19T07:26:05;11.30;99.90
30186;DHT22;31152;49.190;8.122;2023-11-19T07:28:35;11.30;99.90
30186;DHT22;31152;49.190;8.122;2023-11-19T07:31:01;11.50;99.90
30186;DHT22;31152;49.190;8.122;2023-11-19T07:33:28;11.70;99.90
30186;DHT22;31152;49.190;8.122;2023-11-19T07:35:55;12.00;99.90
30186;DHT22;31152;49.190;8.122;2023-11-19T07:38:22;12.20;99.90
30186;DHT22;31152;49.190;8.122;2023-11-19T07:40:49;12.40;99.90
30186;DHT22;31152;49.190;8.122;2023-11-19T07:43:19;12.50;99.90
30186;DHT22;31152;49.190;8.122;2023-11-19T07:45:48;12.60;99.90
30186;DHT22;31152;49.190;8.122;2023-11-19T07:48:15;12.80;99.90
30186;DHT22;31152;49.190;8.122;2023-11-19T07:50:42;12.90;99.90
30186;DHT22;31152;49.190;8.122;2023-11-19T07:53:09;13.00;99.90
30186;DHT22;31152;49.190;8.122;2023-11-19T07:55:35;13.10;99.90
30186;DHT22;31152;49.190;8.122;2023-11-19T07:58:08;13.20;99.90
30186;DHT22;31152;49.190;8.122;2023-11-19T08:00:34;13.40;99.90
30186;DHT22;31152;49.190;8.122;2023-11-19T08:03:01;13.40;99.90
30186;DHT22;31152;49.190;8.122;2023-11-19T08:05:28;13.40;99.90
30186;DHT22;31152;49.190;8.122;2023-11-19T08:07:57;13.40;99.90
30186;DHT22;31152;49.190;8.122;2023-11-19T08:10:25;13.40;99.90
30186;DHT22;31152;49.190;8.122;2023-11-19T08:12:51;13.40;99.90
30186;DHT22;31152;49.190;8.122;2023-11-19T08:15:20;13.50;99.90
30186;DHT22;31152;49.190;8.122;2023-11-19T08:17:52;13.50;99.90
30186;DHT22;31152;49.190;8.122;2023-11-19T08:20:20;13.50;99.90
30186;DHT22;31152;49.190;8.122;2023-11-19T08:22:46;13.50;99.90
30186;DHT22;31152;49.190;8.122;2023-11-19T08:25:13;13.60;99.90
30186;DHT22;31152;49.190;8.122;2023-11-19T08:27:40;13.70;99.90
30186;DHT22;31152;49.190;8.122;2023-11-19T08:30:09;13.80;99.90
30186;DHT22;31152;49.190;8.122;2023-11-19T08:32:39;13.80;99.90
30186;DHT22;31152;49.190;8.122;2023-11-19T08:35:06;13.90;99.90
30186;DHT22;31152;49.190;8.122;2023-11-19T08:37:33;14.00;99.90
30186;DHT22;31152;49.190;8.122;2023-11-19T08:40:03;14.00;99.90
30186;DHT22;31152;49.190;8.122;2023-11-19T08:42:31;14.10;99.90
30186;DHT22;31152;49.190;8.122;2023-11-19T08:45:00;14.10;99.90
30186;DHT22;31152;49.190;8.122;2023-11-19T08:47:26;14.20;99.90
30186;DHT22;31152;49.190;8.122;2023-11-19T08:49:53;14.30;99.90
30186;DHT22;31152;49.190;8.122;2023-11-19T08:52:24;14.40;99.90
30186;DHT22;31152;49.190;8.122;2023-11-19T08:54:51;14.40;99.90
30186;DHT22;31152;49.190;8.122;2023-11-19T08:57:20;14.50;99.90
30186;DHT22;31152;49.190;8.122;2023-11-19T08:59:49;14.60;99.90
30186;DHT22;31152;49.190;8.122;2023-11-19T09:02:16;14.70;99.90
30186;DHT22;31152;49.190;8.122;2023-11-19T09:04:43;14.70;99.90
30186;DHT22;31152;49.190;8.122;2023-11-19T09:07:10;14.60;99.90
30186;DHT22;31152;49.190;8.122;2023-11-19T09:09:37;14.70;99.90
30186;DHT22;31152;49.190;8.122;2023-11-19T09:12:04;14.80;99.90
30186;DHT22;31152;49.190;8.122;2023-11-19T09:14:31;14.80;99.90
30186;DHT22;31152;49.190;8.122;2023-11-19T09:16:58;14.80;99.90
30186;DHT22;31152;49.190;8.122;2023-11-19T09:19:26;14.80;99.90
30186;DHT22;31152;49.190;8.122;2023-11-19T09:21:55;15.00;99.90
30186;DHT22;31152;49.190;8.122;2023-11-19T10:02:06;15.30;99.90
30186;DHT22;31152;49.190;8.122;2023-11-19T10:04:35;15.40;99.90
30186;DHT22;31152;49.190;8.122;2023-11-19T10:07:04;15.50;99.90
30186;DHT22;31152;49.190;8.122;2023-11-19T10:09:33;15.60;99.90
30186;DHT22;31152;49.190;8.122;2023-11-19T10:12:02;15.90;99.90
30186;DHT22;31152;49.190;8.122;2023-11-19T10:14:31;16.20;99.90
30186;DHT22;31152;49.190;8.122;2023-11-19T10:16:58;16.30;99.90
30186;DHT22;31152;49.190;8.122;2023-11-19T10:19:25;16.10;99.90
30186;DHT22;31152;49.190;8.122;2023-11-19T10:21:52;15.90;99.90
30186;DHT22;31152;49.190;8.122;2023-11-19T10:24:31;15.90;99.90
30186;DHT22;31152;49.190;8.122;2023-11-19T10:27:02;16.30;99.90
30186;DHT22;31152;49.190;8.122;2023-11-19T10:29:30;16.80;99.90
30186;DHT22;31152;49.190;8.122;2023-11-19T10:31:57;17.30;99.90
30186;DHT22;31152;49.190;8.122;2023-11-19T10:34:44;17.60;99.90
30186;DHT22;31152;49.190;8.122;2023-11-19T10:37:30;18.00;99.90
30186;DHT22;31152;49.190;8.122;2023-11-19T10:40:04;18.20;99.90
30186;DHT22;31152;49.190;8.122;2023-11-19T10:42:37;18.30;99.90
30186;DHT22;31152;49.190;8.122;2023-11-19T10:45:04;18.40;99.90
30186;DHT22;31152;49.190;8.122;2023-11-19T10:47:32;18.70;99.90
30186;DHT22;31152;49.190;8.122;2023-11-19T10:50:05;19.30;99.90
30186;DHT22;31152;49.190;8.122;2023-11-19T10:52:35;19.50;99.90
30186;DHT22;31152;49.190;8.122;2023-11-19T10:55:06;19.50;99.90
30186;DHT22;31152;49.190;8.122;2023-11-19T10:57:40;19.30;99.90
30186;DHT22;31152;49.190;8.122;2023-11-19T11:00:15;18.80;99.90
30186;DHT22;31152;49.190;8.122;2023-11-19T11:02:50;18.80;99.90
30186;DHT22;31152;49.190;8.122;2023-11-19T11:05:23;19.10;99.90
30186;DHT22;31152;49.190;8.122;2023-11-19T11:07:55;19.40;99.90
30186;DHT22;31152;49.190;8.122;2023-11-19T11:10:25;18.50;99.90
30186;DHT22;31152;49.190;8.122;2023-11-19T11:12:53;18.30;99.90
30186;DHT22;31152;49.190;8.122;2023-11-19T11:15:27;17.80;99.90
30186;DHT22;31152;49.190;8.122;2023-11-19T11:18:00;18.00;99.90
30186;DHT22;31152;49.190;8.122;2023-11-19T11:20:31;17.70;99.90
30186;DHT22;31152;49.190;8.122;2023-11-19T11:23:33;17.70;99.90
30186;DHT22;31152;49.190;8.122;2023-11-19T11:29:02;17.00;99.90
30186;DHT22;31152;49.190;8.122;2023-11-19T11:32:01;16.80;99.90
30186;DHT22;31152;49.190;8.122;2023-11-19T11:39:50;16.50;99.90
30186;DHT22;31152;49.190;8.122;2023-11-19T11:45:00;17.00;99.90
30186;DHT22;31152;49.190;8.122;2023-11-19T11:50:19;18.70;99.90
30186;DHT22;31152;49.190;8.122;2023-11-19T11:55:29;19.10;99.90
30186;DHT22;31152;49.190;8.122;2023-11-19T11:58:00;19.00;99.90
30186;DHT22;31152;49.190;8.122;2023-11-19T12:00:32;19.00;99.90
30186;DHT22;31152;49.190;8.122;2023-11-19T12:03:00;19.10;99.90
30186;DHT22;31152;49.190;8.122;2023-11-19T12:05:27;19.50;99.90
30186;DHT22;31152;49.190;8.122;2023-11-19T12:08:04;19.20;99.90
30186;DHT22;31152;49.190;8.122;2023-11-19T12:10:46;19.80;99.90
30186;DHT22;31152;49.190;8.122;2023-11-19T12:13:17;19.90;99.90
30186;DHT22;31152;49.190;8.122;2023-11-19T12:18:33;21.60;99.40
30186;DHT22;31152;49.190;8.122;2023-11-19T12:21:00;23.10;96.00
30186;DHT22;31152;49.190;8.122;2023-11-19T12:23:32;22.30;95.60
30186;DHT22;31152;49.190;8.122;2023-11-19T12:26:03;21.90;95.00
30186;DHT22;31152;49.190;8.122;2023-11-19T12:28:30;21.30;95.90
30186;DHT22;31152;49.190;8.122;2023-11-19T12:31:08;21.90;95.30
30186;DHT22;31152;49.190;8.122;2023-11-19T12:33:40;22.30;93.30
30186;DHT22;31152;49.190;8.122;2023-11-19T12:36:07;22.30;92.80
30186;DHT22;31152;49.190;8.122;2023-11-19T12:38:35;22.60;92.70
30186;DHT22;31152;49.190;8.122;2023-11-19T12:41:07;23.00;91.80
30186;DHT22;31152;49.190;8.122;2023-11-19T12:43:34;22.50;90.70
30186;DHT22;31152;49.190;8.122;2023-11-19T12:46:18;22.70;89.10
30186;DHT22;31152;49.190;8.122;2023-11-19T12:48:47;21.80;90.20
30186;DHT22;31152;49.190;8.122;2023-11-19T12:51:17;19.50;93.90
30186;DHT22;31152;49.190;8.122;2023-11-19T12:53:51;18.60;95.90
30186;DHT22;31152;49.190;8.122;2023-11-19T12:56:21;18.00;97.90
30186;DHT22;31152;49.190;8.122;2023-11-19T12:58:49;17.80;99.70
30186;DHT22;31152;49.190;8.122;2023-11-19T13:01:18;18.00;99.40
30186;DHT22;31152;49.190;8.122;2023-11-19T13:03:47;18.80;98.40
30186;DHT22;31152;49.190;8.122;2023-11-19T13:06:17;18.50;98.80
30186;DHT22;31152;49.190;8.122;2023-11-19T13:08:49;17.60;99.50
30186;DHT22;31152;49.190;8.122;2023-11-19T13:11:32;17.80;99.40
30186;DHT22;31152;49.190;8.122;2023-11-19T13:14:01;18.90;98.20
30186;DHT22;31152;49.190;8.122;2023-11-19T13:16:31;20.10;95.70
30186;DHT22;31152;49.190;8.122;2023-11-19T13:18:58;20.30;93.90
30186;DHT22;31152;49.190;8.122;2023-11-19T13:21:29;19.20;94.50
30186;DHT22;31152;49.190;8.122;2023-11-19T13:23:57;18.90;96.60
30186;DHT22;31152;49.190;8.122;2023-11-19T13:26:26;19.10;95.80
30186;DHT22;31152;49.190;8.122;2023-11-19T13:28:54;19.90;94.40
30186;DHT22;31152;49.190;8.122;2023-11-19T13:31:21;20.60;92.20
30186;DHT22;31152;49.190;8.122;2023-11-19T13:33:49;21.20;92.00
30186;DHT22;31152;49.190;8.122;2023-11-19T13:36:16;21.30;89.60
30186;DHT22;31152;49.190;8.122;2023-11-19T13:38:43;20.70;90.70
30186;DHT22;31152;49.190;8.122;2023-11-19T13:41:16;20.20;91.70
30186;DHT22;31152;49.190;8.122;2023-11-19T13:43:44;20.40;91.70
30186;DHT22;31152;49.190;8.122;2023-11-19T13:46:10;20.40;92.00
30186;DHT22;31152;49.190;8.122;2023-11-19T13:48:38;20.90;91.20
30186;DHT22;31152;49.190;8.122;2023-11-19T13:51:05;20.90;91.10
30186;DHT22;31152;49.190;8.122;2023-11-19T13:53:32;21.20;91.20
30186;DHT22;31152;49.190;8.122;2023-11-19T13:56:17;21.60;90.50
30186;DHT22;31152;49.190;8.122;2023-11-19T13:58:44;21.00;91.20
30186;DHT22;31152;49.190;8.122;2023-11-19T14:01:11;21.30;91.10
30186;DHT22;31152;49.190;8.122;2023-11-19T14:03:40;22.20;90.50
30186;DHT22;31152;49.190;8.122;2023-11-19T14:06:09;22.90;88.40
30186;DHT22;31152;49.190;8.122;2023-11-19T14:08:36;22.30;88.60
30186;DHT22;31152;49.190;8.122;2023-11-19T14:11:04;22.60;87.40
30186;DHT22;31152;49.190;8.122;2023-11-19T14:13:32;22.60;86.30
30186;DHT22;31152;49.190;8.122;2023-11-19T14:16:02;21.90;86.30
30186;DHT22;31152;49.190;8.122;2023-11-19T14:18:32;22.00;87.60
30186;DHT22;31152;49.190;8.122;2023-11-19T14:20:59;22.00;87.80
30186;DHT22;31152;49.190;8.122;2023-11-19T14:23:27;21.90;87.40
30186;DHT22;31152;49.190;8.122;2023-11-19T14:25:54;21.80;86.10
30186;DHT22;31152;49.190;8.122;2023-11-19T14:28:23;21.00;87.30
30186;DHT22;31152;49.190;8.122;2023-11-19T14:30:53;21.00;89.30
30186;DHT22;31152;49.190;8.122;2023-11-19T14:33:24;20.60;87.40
30186;DHT22;31152;49.190;8.122;2023-11-19T14:35:53;20.70;88.80
30186;DHT22;31152;49.190;8.122;2023-11-19T14:38:20;20.20;89.30
30186;DHT22;31152;49.190;8.122;2023-11-19T14:40:47;19.70;90.30
30186;DHT22;31152;49.190;8.122;2023-11-19T14:43:16;20.00;90.40
30186;DHT22;31152;49.190;8.122;2023-11-19T14:45:43;19.90;90.50
30186;DHT22;31152;49.190;8.122;2023-11-19T14:48:16;19.80;90.30
30186;DHT22;31152;49.190;8.122;2023-11-19T14:50:45;19.80;90.70
30186;DHT22;31152;49.190;8.122;2023-11-19T14:53:11;19.90;91.00
30186;DHT22;31152;49.190;8.122;2023-11-19T14:55:38;19.70;91.20
30186;DHT22;31152;49.190;8.122;2023-11-19T14:58:07;19.20;91.90
30186;DHT22;31152;49.190;8.122;2023-11-19T15:00:40;18.60;92.80
30186;DHT22;31152;49.190;8.122;2023-11-19T15:03:07;17.80;94.70
30186;DHT22;31152;49.190;8.122;2023-11-19T15:05:36;17.00;96.40
30186;DHT22;31152;49.190;8.122;2023-11-19T15:08:06;16.50;98.10
30186;DHT22;31152;49.190;8.122;2023-11-19T15:10:35;16.10;99.40
30186;DHT22;31152;49.190;8.122;2023-11-19T15:13:02;15.90;99.90
30186;DHT22;31152;49.190;8.122;2023-11-19T15:15:29;15.80;99.90
30186;DHT22;31152;49.190;8.122;2023-11-19T15:17:59;15.60;99.90
30186;DHT22;31152;49.190;8.122;2023-11-19T15:20:26;15.50;99.90
30186;DHT22;31152;49.190;8.122;2023-11-19T15:22:57;15.40;99.90
30186;DHT22;31152;49.190;8.122;2023-11-19T15:25:25;15.30;99.90
30186;DHT22;31152;49.190;8.122;2023-11-19T15:27:52;15.30;99.90
30186;DHT22;31152;49.190;8.122;2023-11-19T15:30:19;15.10;99.90
30186;DHT22;31152;49.190;8.122;2023-11-19T15:32:46;15.00;99.90
30186;DHT22;31152;49.190;8.122;2023-11-19T15:35:14;14.90;99.90
30186;DHT22;31152;49.190;8.122;2023-11-19T15:37:43;14.80;99.90
30186;DHT22;31152;49.190;8.122;2023-11-19T15:40:12;14.70;99.90
30186;DHT22;31152;49.190;8.122;2023-11-19T15:42:40;14.70;99.90
30186;DHT22;31152;49.190;8.122;2023-11-19T15:45:07;14.60;99.90
30186;DHT22;31152;49.190;8.122;2023-11-19T15:47:37;14.60;99.90
30186;DHT22;31152;49.190;8.122;2023-11-19T15:50:05;14.50;99.90
30186;DHT22;31152;49.190;8.122;2023-11-19T15:52:32;14.40;99.90
30186;DHT22;31152;49.190;8.122;2023-11-19T15:54:59;14.30;99.90
30186;DHT22;31152;49.190;8.122;2023-11-19T15:57:26;14.30;99.90
30186;DHT22;31152;49.190;8.122;2023-11-19T15:59:53;14.20;99.90
30186;DHT22;31152;49.190;8.122;2023-11-19T16:02:21;14.20;99.90
30186;DHT22;31152;49.190;8.122;2023-11-19T16:04:48;14.10;99.90
30186;DHT22;31152;49.190;8.122;2023-11-19T16:07:17;14.10;99.90
30186;DHT22;31152;49.190;8.122;2023-11-19T16:09:44;14.10;99.90
30186;DHT22;31152;49.190;8.122;2023-11-19T16:12:10;14.00;99.90
30186;DHT22;31152;49.190;8.122;2023-11-19T16:14:37;14.10;99.90
30186;DHT22;31152;49.190;8.122;2023-11-19T16:17:04;14.10;99.90
30186;DHT22;31152;49.190;8.122;2023-11-19T16:19:32;14.10;99.90
30186;DHT22;31152;49.190;8.122;2023-11-19T16:22:01;14.10;99.90
30186;DHT22;31152;49.190;8.122;2023-11-19T16:24:36;14.00;99.90
30186;DHT22;31152;49.190;8.122;2023-11-19T16:27:04;14.00;99.90
30186;DHT22;31152;49.190;8.122;2023-11-19T16:29:31;13.90;99.90
30186;DHT22;31152;49.190;8.122;2023-11-19T16:31:57;13.90;99.90
30186;DHT22;31152;49.190;8.122;2023-11-19T16:34:24;13.90;99.90
30186;DHT22;31152;49.190;8.122;2023-11-19T16:36:53;13.80;99.90
30186;DHT22;31152;49.190;8.122;2023-11-19T16:39:23;13.80;99.90
30186;DHT22;31152;49.190;8.122;2023-11-19T16:41:52;13.80;99.90
30186;DHT22;31152;49.190;8.122;2023-11-19T16:44:18;13.90;99.90